createdAt,value
2019-02-16T00:02:10.791Z,2.97
2019-02-16T00:04:39.040Z,3.83
2019-02-16T00:07:07.263Z,3.23
2019-02-16T00:09:35.724Z,3.83
2019-02-16T00:12:04.209Z,4.47
2019-02-16T00:14:32.681Z,3.00
2019-02-16T00:17:00.904Z,3.77
2019-02-16T00:19:29.147Z,4.03
2019-02-16T00:21:57.608Z,4.17
2019-02-16T00:24:25.853Z,4.77
2019-02-16T00:26:54.091Z,2.90
2019-02-16T00:29:22.338Z,3.67
2019-02-16T00:31:50.816Z,4.37
2019-02-16T00:34:19.042Z,4.43
2019-02-16T00:36:47.276Z,2.90
2019-02-16T00:39:15.551Z,3.37
2019-02-16T00:41:43.804Z,3.53
2019-02-16T00:44:12.038Z,3.37
2019-02-16T00:46:40.515Z,3.87
2019-02-16T00:49:08.780Z,3.53
2019-02-16T00:51:37.230Z,4.40
2019-02-16T00:54:05.452Z,3.63
2019-02-16T00:56:33.699Z,4.03
2019-02-16T00:59:02.156Z,3.70
2019-02-16T01:01:30.559Z,2.87
2019-02-16T01:03:58.779Z,2.97
2019-02-16T01:06:27.021Z,3.63
2019-02-16T01:08:55.263Z,3.20
2019-02-16T01:11:23.484Z,3.77
2019-02-16T01:13:51.725Z,3.87
2019-02-16T01:16:19.973Z,3.33
2019-02-16T01:18:48.201Z,3.00
2019-02-16T01:21:22.464Z,3.03
2019-02-16T01:23:46.380Z,3.10
2019-02-16T01:26:14.628Z,3.50
2019-02-16T01:28:42.859Z,2.87
2019-02-16T01:31:11.340Z,3.63
2019-02-16T01:33:39.642Z,2.90
2019-02-16T01:36:07.860Z,3.30
2019-02-16T01:38:36.354Z,2.70
2019-02-16T01:41:04.572Z,3.23
2019-02-16T01:43:32.836Z,2.57
2019-02-16T01:46:01.043Z,2.80
2019-02-16T01:48:29.299Z,2.80
2019-02-16T01:50:57.534Z,2.97
2019-02-16T01:53:25.768Z,3.03
2019-02-16T01:55:54.005Z,2.90
2019-02-16T01:58:22.237Z,3.10
2019-02-16T02:00:50.721Z,3.43
2019-02-16T02:03:18.937Z,3.63
2019-02-16T02:05:47.493Z,3.60
2019-02-16T02:08:15.715Z,2.70
2019-02-16T02:10:43.944Z,3.30
2019-02-16T02:13:12.193Z,2.70
2019-02-16T02:15:40.654Z,3.00
2019-02-16T02:18:08.885Z,3.53
2019-02-16T02:20:37.126Z,3.47
2019-02-16T02:23:05.348Z,2.93
2019-02-16T02:25:33.607Z,3.23
2019-02-16T02:28:01.835Z,2.60
2019-02-16T02:30:30.057Z,2.63
2019-02-16T02:32:58.315Z,3.00
2019-02-16T02:35:26.524Z,3.57
2019-02-16T02:37:54.744Z,3.77
2019-02-16T02:40:23.000Z,3.03
2019-02-16T02:42:51.225Z,2.83
2019-02-16T02:45:19.463Z,3.77
2019-02-16T02:47:47.683Z,3.13
2019-02-16T02:50:15.924Z,3.23
2019-02-16T02:52:44.140Z,3.20
2019-02-16T02:55:12.387Z,4.40
2019-02-16T02:57:40.624Z,2.60
2019-02-16T03:00:09.738Z,2.50
2019-02-16T03:02:37.951Z,2.83
2019-02-16T03:05:07.936Z,2.60
2019-02-16T03:07:36.167Z,2.83
2019-02-16T03:10:05.432Z,2.80
2019-02-16T03:12:33.660Z,2.60
2019-02-16T03:15:02.135Z,3.27
2019-02-16T03:17:30.348Z,2.73
2019-02-16T03:19:58.817Z,2.57
2019-02-16T03:22:36.055Z,3.33
2019-02-16T03:25:05.282Z,2.47
2019-02-16T03:27:39.409Z,2.60
2019-02-16T03:30:16.040Z,3.30
2019-02-16T03:32:53.562Z,3.63
2019-02-16T03:35:34.118Z,2.50
2019-02-16T03:38:33.236Z,3.00
2019-02-16T03:41:01.474Z,2.60
2019-02-16T03:43:29.692Z,2.50
2019-02-16T03:45:57.945Z,2.60
2019-02-16T03:48:26.156Z,2.90
2019-02-16T03:50:54.409Z,2.60
2019-02-16T03:53:22.619Z,3.07
2019-02-16T03:55:50.860Z,2.60
2019-02-16T03:58:19.100Z,2.47
2019-02-16T04:00:47.334Z,2.90
2019-02-16T04:03:15.569Z,2.83
2019-02-16T04:05:43.800Z,2.60
2019-02-16T04:08:12.085Z,2.90
2019-02-16T04:10:40.348Z,3.10
2019-02-16T04:13:08.589Z,2.67
2019-02-16T04:15:36.886Z,2.37
2019-02-16T04:18:05.126Z,2.40
2019-02-16T04:20:33.335Z,2.50
2019-02-16T04:23:01.583Z,2.53
2019-02-16T04:25:29.833Z,3.23
2019-02-16T04:27:58.051Z,2.60
2019-02-16T04:30:26.271Z,2.40
2019-02-16T04:32:54.513Z,2.40
2019-02-16T04:35:22.752Z,3.20
2019-02-16T04:37:50.983Z,2.67
2019-02-16T04:40:19.250Z,3.17
2019-02-16T04:42:47.556Z,2.57
2019-02-16T04:45:15.781Z,2.50
2019-02-16T04:47:43.997Z,3.13
2019-02-16T04:50:12.239Z,2.83
2019-02-16T04:52:40.456Z,2.30
2019-02-16T04:55:08.678Z,2.40
2019-02-16T04:57:36.986Z,2.37
2019-02-16T05:00:06.049Z,2.60
2019-02-16T05:02:34.280Z,2.30
2019-02-16T05:05:02.525Z,2.67
2019-02-16T05:07:30.747Z,2.53
2019-02-16T05:09:58.982Z,2.50
2019-02-16T05:12:27.227Z,2.50
2019-02-16T05:14:55.448Z,2.23
2019-02-16T05:17:23.692Z,2.53
2019-02-16T05:19:51.928Z,2.70
2019-02-16T05:22:20.160Z,3.30
2019-02-16T05:24:48.380Z,2.17
2019-02-16T05:27:16.625Z,2.40
2019-02-16T05:29:44.864Z,2.93
2019-02-16T05:32:13.124Z,2.63
2019-02-16T05:34:41.579Z,2.73
2019-02-16T05:37:09.836Z,2.30
2019-02-16T05:39:38.040Z,2.47
2019-02-16T05:42:06.327Z,2.80
2019-02-16T05:44:34.586Z,2.37
2019-02-16T05:47:03.073Z,2.13
2019-02-16T05:49:31.396Z,2.20
2019-02-16T05:51:59.720Z,2.30
2019-02-16T05:54:28.206Z,2.30
2019-02-16T05:56:56.700Z,2.33
2019-02-16T05:59:24.924Z,2.07
2019-02-16T06:01:54.206Z,2.23
2019-02-16T06:04:22.741Z,2.60
2019-02-16T06:06:50.977Z,2.73
2019-02-16T06:09:19.216Z,2.30
2019-02-16T06:11:47.464Z,2.67
2019-02-16T06:14:15.699Z,2.30
2019-02-16T06:16:44.038Z,2.33
2019-02-16T06:19:12.325Z,2.30
2019-02-16T06:21:40.578Z,2.40
2019-02-16T06:24:08.794Z,2.30
2019-02-16T06:26:37.042Z,2.20
2019-02-16T06:29:05.264Z,2.27
2019-02-16T06:31:33.496Z,2.20
2019-02-16T06:34:01.749Z,2.50
2019-02-16T06:36:31.632Z,2.73
2019-02-16T06:38:59.864Z,2.43
2019-02-16T06:41:28.300Z,2.23
2019-02-16T06:43:56.518Z,2.50
2019-02-16T06:46:24.792Z,2.67
2019-02-16T06:48:53.044Z,2.30
2019-02-16T06:51:21.288Z,2.40
2019-02-16T06:53:49.803Z,2.20
2019-02-16T06:56:19.778Z,3.00
2019-02-16T06:58:48.027Z,2.37
2019-02-16T07:01:16.880Z,2.30
2019-02-16T07:03:45.103Z,2.90
2019-02-16T07:06:13.347Z,2.13
2019-02-16T07:08:41.585Z,2.43
2019-02-16T07:11:09.833Z,2.73
2019-02-16T07:13:38.733Z,2.43
2019-02-16T07:16:14.692Z,2.50
2019-02-16T07:18:50.347Z,2.43
2019-02-16T07:21:18.576Z,2.17
2019-02-16T07:23:46.853Z,2.37
2019-02-16T07:26:15.069Z,2.50
2019-02-16T07:28:43.529Z,2.57
2019-02-16T07:31:11.815Z,2.30
2019-02-16T07:33:40.057Z,2.33
2019-02-16T07:36:08.312Z,2.47
2019-02-16T07:38:36.824Z,3.27
2019-02-16T07:41:05.053Z,2.43
2019-02-16T07:43:40.896Z,2.33
2019-02-16T07:46:28.676Z,2.43
2019-02-16T07:49:01.700Z,2.20
2019-02-16T07:51:47.804Z,2.50
2019-02-16T07:54:29.581Z,2.50
2019-02-16T07:57:05.589Z,2.33
2019-02-16T07:59:41.152Z,2.10
2019-02-16T08:02:16.956Z,2.17
2019-02-16T08:04:46.812Z,2.40
2019-02-16T08:07:32.972Z,2.30
2019-02-16T08:10:02.883Z,2.20
2019-02-16T08:12:32.964Z,2.40
2019-02-16T08:15:05.632Z,2.10
2019-02-16T08:17:35.519Z,2.30
2019-02-16T08:20:17.671Z,2.27
2019-02-16T08:22:47.639Z,2.10
2019-02-16T08:25:20.428Z,2.27
2019-02-16T08:27:52.755Z,2.20
2019-02-16T08:30:22.632Z,2.10
2019-02-16T08:32:52.520Z,2.07
2019-02-16T08:35:22.379Z,2.13
2019-02-16T08:37:52.484Z,2.20
2019-02-16T08:40:28.113Z,2.63
2019-02-16T08:43:00.621Z,2.30
2019-02-16T08:45:39.327Z,2.30
2019-02-16T08:48:09.220Z,2.30
2019-02-16T08:50:44.609Z,2.10
2019-02-16T08:53:14.528Z,2.43
2019-02-16T08:55:59.140Z,2.20
2019-02-16T08:58:38.104Z,2.80
2019-02-16T09:01:07.976Z,11.00
2019-02-16T09:03:40.756Z,5.30
2019-02-16T09:06:10.655Z,4.27
2019-02-16T09:08:46.825Z,7.37
2019-02-16T09:11:33.016Z,3.83
2019-02-16T09:14:18.879Z,7.93
2019-02-16T09:16:48.900Z,5.03
2019-02-16T09:19:35.011Z,4.97
2019-02-16T09:22:22.973Z,5.07
2019-02-16T09:24:55.871Z,6.10
2019-02-16T09:27:34.317Z,15.00
2019-02-16T09:30:20.523Z,7.60
2019-02-16T09:32:53.076Z,16.03
2019-02-16T09:35:25.890Z,8.33
2019-02-16T09:37:55.786Z,14.00
2019-02-16T09:40:34.561Z,13.70
2019-02-16T09:43:10.231Z,5.47
2019-02-16T09:45:40.378Z,12.67
2019-02-16T09:48:22.056Z,13.20
2019-02-16T09:50:51.948Z,15.03
2019-02-16T09:53:27.973Z,26.57
2019-02-16T09:56:06.916Z,18.07
2019-02-16T09:58:48.603Z,15.07
2019-02-16T10:01:18.505Z,15.37
2019-02-16T10:03:48.482Z,20.10
2019-02-16T10:06:21.305Z,18.93
2019-02-16T10:08:53.996Z,15.63
2019-02-16T10:11:23.869Z,21.97
2019-02-16T10:13:59.885Z,18.53
2019-02-16T10:16:46.407Z,24.53
2019-02-16T10:19:28.503Z,23.30
2019-02-16T10:22:16.236Z,24.37
2019-02-16T10:24:58.079Z,27.03
2019-02-16T10:27:27.931Z,23.87
2019-02-16T10:30:00.496Z,20.27
2019-02-16T10:32:36.432Z,30.10
2019-02-16T10:35:06.836Z,16.97
2019-02-16T10:37:52.742Z,20.73
2019-02-16T10:40:28.655Z,26.07
2019-02-16T10:42:58.610Z,28.43
2019-02-16T10:45:44.963Z,40.43
2019-02-16T10:48:14.832Z,57.77
2019-02-16T10:50:44.958Z,46.77
2019-02-16T10:53:26.944Z,47.23
2019-02-16T10:55:56.823Z,39.13
2019-02-16T10:58:26.707Z,44.40
2019-02-16T11:01:05.648Z,40.73
2019-02-16T11:03:41.505Z,41.60
2019-02-16T11:06:17.748Z,40.90
2019-02-16T11:08:47.646Z,37.37
2019-02-16T11:11:18.565Z,46.57
2019-02-16T11:13:48.832Z,53.73
2019-02-16T11:16:28.644Z,42.83
2019-02-16T11:18:58.672Z,41.70
2019-02-16T11:21:31.344Z,42.93
2019-02-16T11:24:08.001Z,41.83
2019-02-16T11:26:40.901Z,44.17
2019-02-16T11:29:25.957Z,37.10
2019-02-16T11:31:58.835Z,38.00
2019-02-16T11:34:46.894Z,43.23
2019-02-16T11:37:17.292Z,38.90
2019-02-16T11:39:47.249Z,33.70
2019-02-16T11:42:33.383Z,42.00
2019-02-16T11:45:12.216Z,37.77
2019-02-16T11:47:50.872Z,39.70
2019-02-16T11:50:20.770Z,35.77
2019-02-16T11:52:53.302Z,46.30
2019-02-16T11:55:32.206Z,44.60
2019-02-16T11:58:19.852Z,32.50
2019-02-16T12:00:58.517Z,44.90
2019-02-16T12:03:28.637Z,31.50
2019-02-16T12:06:04.263Z,31.90
2019-02-16T12:08:39.916Z,30.50
2019-02-16T12:11:25.857Z,34.10
2019-02-16T12:13:58.914Z,33.87
2019-02-16T12:16:28.816Z,46.83
2019-02-16T12:19:04.406Z,32.60
2019-02-16T12:21:46.612Z,34.53
2019-02-16T12:24:16.575Z,37.03
2019-02-16T12:26:46.470Z,32.53
2019-02-16T12:29:16.353Z,35.30
2019-02-16T12:31:55.556Z,34.40
2019-02-16T12:34:31.833Z,30.40
2019-02-16T12:37:05.033Z,35.70
2019-02-16T12:39:51.167Z,34.90
2019-02-16T12:42:36.276Z,31.80
2019-02-16T12:45:06.505Z,24.03
2019-02-16T12:47:42.247Z,28.00
2019-02-16T12:50:28.372Z,24.30
2019-02-16T12:53:10.239Z,21.33
2019-02-16T12:55:46.048Z,18.57
2019-02-16T12:58:15.916Z,18.47
2019-02-16T13:00:51.808Z,19.90
2019-02-16T13:03:30.470Z,23.50
2019-02-16T13:06:03.299Z,19.40
2019-02-16T13:08:33.214Z,20.90
2019-02-16T13:11:05.824Z,18.17
2019-02-16T13:13:38.612Z,25.43
2019-02-16T13:16:20.456Z,34.20
2019-02-16T13:18:50.319Z,21.37
2019-02-16T13:21:20.240Z,20.23
2019-02-16T13:23:56.172Z,27.00
2019-02-16T13:26:38.248Z,22.40
2019-02-16T13:29:24.468Z,22.87
2019-02-16T13:31:57.065Z,21.93
2019-02-16T13:34:36.071Z,40.77
2019-02-16T13:37:21.056Z,27.02
2019-02-16T13:39:59.897Z,31.83
2019-02-16T13:42:32.516Z,20.30
2019-02-16T13:45:08.532Z,22.80
2019-02-16T13:47:38.420Z,18.93
2019-02-16T13:50:08.598Z,19.95
2019-02-16T13:52:38.491Z,21.15
2019-02-16T13:55:11.290Z,26.53
2019-02-16T13:57:52.934Z,15.70
2019-02-16T14:00:22.797Z,19.80
2019-02-16T14:02:52.700Z,25.60
2019-02-16T14:05:28.540Z,24.60
2019-02-16T14:07:58.499Z,19.25
2019-02-16T14:10:34.579Z,19.37
2019-02-16T14:13:10.547Z,19.93
2019-02-16T14:15:40.470Z,28.10
2019-02-16T14:18:08.759Z,29.47
2019-02-16T14:20:38.681Z,28.60
2019-02-16T14:23:07.106Z,43.70
2019-02-16T14:25:43.678Z,38.20
2019-02-16T14:28:06.955Z,35.43
2019-02-16T14:30:35.515Z,29.63
2019-02-16T14:33:03.972Z,49.57
2019-02-16T14:35:32.201Z,49.67
2019-02-16T14:38:02.112Z,45.10
2019-02-16T14:40:30.936Z,42.70
2019-02-16T14:42:59.243Z,35.77
2019-02-16T14:45:27.761Z,50.17
2019-02-16T14:47:56.030Z,49.30
2019-02-16T14:50:24.248Z,46.57
2019-02-16T14:52:52.525Z,49.30
2019-02-16T14:55:20.753Z,47.07
2019-02-16T14:57:49.011Z,44.23
2019-02-16T15:00:17.242Z,46.87
2019-02-16T15:02:45.522Z,65.90
2019-02-16T15:05:13.802Z,52.47
2019-02-16T15:07:42.117Z,32.63
2019-02-16T15:10:11.811Z,35.77
2019-02-16T15:12:40.063Z,38.03
2019-02-16T15:15:09.676Z,35.23
2019-02-16T15:17:37.956Z,28.93
2019-02-16T15:20:16.834Z,28.13
2019-02-16T15:22:45.099Z,32.57
2019-02-16T15:25:13.796Z,29.43
2019-02-16T15:27:42.044Z,30.90
2019-02-16T15:30:14.222Z,36.67
2019-02-16T15:32:42.280Z,36.77
2019-02-16T15:35:11.148Z,97.20
2019-02-16T15:37:39.392Z,51.97
2019-02-16T15:40:09.548Z,46.20
2019-02-16T15:42:37.830Z,40.97
2019-02-16T15:45:13.525Z,52.80
2019-02-16T15:47:41.752Z,50.87
2019-02-16T15:50:14.356Z,69.40
2019-02-16T15:52:42.606Z,62.47
2019-02-16T15:55:11.866Z,54.23
2019-02-16T15:57:40.351Z,44.07
2019-02-16T16:00:13.324Z,72.27
2019-02-16T16:02:41.589Z,64.47
2019-02-16T16:05:09.929Z,87.30
2019-02-16T16:07:39.239Z,78.23
2019-02-16T16:10:09.467Z,47.97
2019-02-16T16:12:57.452Z,66.97
2019-02-16T16:15:44.853Z,65.23
2019-02-16T16:18:14.860Z,66.07
2019-02-16T16:20:50.940Z,72.00
2019-02-16T16:23:20.828Z,53.30
2019-02-16T16:25:50.691Z,63.20
2019-02-16T16:28:23.534Z,59.03
2019-02-16T16:31:11.462Z,75.43
2019-02-16T16:33:49.851Z,99.57
2019-02-16T16:36:28.932Z,82.80
2019-02-16T16:39:01.522Z,86.97
2019-02-16T16:41:37.212Z,59.07
2019-02-16T16:44:21.963Z,73.00
2019-02-16T16:47:08.100Z,58.87
2019-02-16T16:49:40.997Z,124.60
2019-02-16T16:52:19.750Z,147.17
2019-02-16T16:54:58.756Z,93.07
2019-02-16T16:57:28.661Z,57.07
2019-02-16T17:00:01.424Z,129.83
2019-02-16T17:02:40.136Z,61.70
2019-02-16T17:05:21.832Z,78.67
2019-02-16T17:08:06.752Z,59.37
2019-02-16T17:10:39.499Z,65.40
2019-02-16T17:13:27.225Z,68.70
2019-02-16T17:16:08.864Z,62.63
2019-02-16T17:18:44.412Z,401.20
2019-02-16T17:21:14.305Z,135.83
2019-02-16T17:23:47.020Z,121.60
2019-02-16T17:26:37.686Z,82.40
2019-02-16T17:29:03.588Z,88.70
2019-02-16T17:31:48.751Z,77.23
2019-02-16T17:34:18.619Z,149.80
2019-02-16T17:36:48.519Z,62.27
2019-02-16T17:39:21.085Z,59.13
2019-02-16T17:41:53.900Z,46.07
2019-02-16T17:44:23.996Z,52.13
2019-02-16T17:47:08.668Z,49.23
2019-02-16T17:49:55.244Z,51.17
2019-02-16T17:52:30.719Z,30.67
2019-02-16T17:55:16.704Z,33.30
2019-02-16T17:57:55.883Z,30.30
2019-02-16T18:00:44.122Z,33.03
2019-02-16T18:03:20.003Z,28.47
2019-02-16T18:05:58.603Z,34.10
2019-02-16T18:08:34.564Z,27.77
2019-02-16T18:11:19.332Z,28.27
2019-02-16T18:13:51.852Z,31.50
2019-02-16T18:16:32.322Z,24.87
2019-02-16T18:19:08.162Z,24.90
2019-02-16T18:21:38.060Z,23.57
2019-02-16T18:24:07.930Z,22.23
2019-02-16T18:26:40.179Z,27.67
2019-02-16T18:29:10.059Z,21.13
2019-02-16T18:31:55.045Z,22.00
2019-02-16T18:34:30.901Z,20.30
2019-02-16T18:37:00.906Z,19.87
2019-02-16T18:39:39.909Z,20.90
2019-02-16T18:42:12.709Z,17.40
2019-02-16T18:44:42.624Z,18.13
2019-02-16T18:47:15.443Z,23.93
2019-02-16T18:49:48.468Z,19.77
2019-02-16T18:52:21.071Z,20.17
2019-02-16T18:54:50.956Z,20.43
2019-02-16T18:57:23.533Z,17.87
2019-02-16T19:00:03.241Z,18.47
2019-02-16T19:02:36.267Z,18.53
2019-02-16T19:05:12.929Z,20.57
2019-02-16T19:07:54.901Z,18.67
2019-02-16T19:10:24.759Z,18.70
2019-02-16T19:13:06.708Z,18.57
2019-02-16T19:15:42.484Z,18.53
2019-02-16T19:18:12.374Z,25.40
2019-02-16T19:20:42.260Z,19.63
2019-02-16T19:23:12.202Z,22.53
2019-02-16T19:25:42.069Z,16.17
2019-02-16T19:28:11.971Z,20.00
2019-02-16T19:30:50.625Z,20.50
2019-02-16T19:33:36.512Z,21.90
2019-02-16T19:36:18.555Z,18.77
2019-02-16T19:38:51.391Z,20.97
2019-02-16T19:41:21.253Z,18.47
2019-02-16T19:44:05.856Z,22.03
2019-02-16T19:46:38.392Z,20.67
2019-02-16T19:49:08.238Z,18.60
2019-02-16T19:51:49.930Z,22.60
2019-02-16T19:54:25.444Z,21.50
2019-02-16T19:56:55.324Z,20.57
2019-02-16T19:59:31.344Z,20.87
2019-02-16T20:02:13.406Z,19.13
2019-02-16T20:04:43.290Z,18.53
2019-02-16T20:07:28.084Z,19.00
2019-02-16T20:09:57.988Z,19.47
2019-02-16T20:12:39.822Z,20.03
2019-02-16T20:15:09.725Z,18.47
2019-02-16T20:17:39.605Z,19.03
2019-02-16T20:20:27.660Z,18.00
2019-02-16T20:22:57.528Z,16.97
2019-02-16T20:25:33.196Z,19.20
2019-02-16T20:28:05.791Z,16.83
2019-02-16T20:30:59.416Z,17.90
2019-02-16T20:33:31.861Z,20.20
2019-02-16T20:36:04.414Z,18.17
2019-02-16T20:38:40.284Z,17.87
2019-02-16T20:41:22.119Z,18.53
2019-02-16T20:43:57.689Z,18.67
2019-02-16T20:46:36.380Z,18.17
2019-02-16T20:49:06.251Z,20.30
2019-02-16T20:51:36.132Z,19.93
2019-02-16T20:54:24.212Z,20.00
2019-02-16T20:56:56.729Z,22.23
2019-02-16T20:59:26.863Z,22.43
2019-02-16T21:02:08.691Z,23.40
2019-02-16T21:04:38.545Z,23.83
2019-02-16T21:07:20.210Z,24.53
2019-02-16T21:09:55.804Z,26.33
2019-02-16T21:12:25.685Z,27.13
2019-02-16T21:14:55.646Z,28.03
2019-02-16T21:17:28.176Z,29.90
2019-02-16T21:19:58.060Z,31.73
2019-02-16T21:22:37.047Z,33.13
2019-02-16T21:25:07.675Z,36.40
2019-02-16T21:27:37.625Z,37.23
2019-02-16T21:30:10.260Z,40.17
2019-02-16T21:32:40.156Z,41.23
2019-02-16T21:35:15.996Z,41.33
2019-02-16T21:38:00.701Z,41.90
2019-02-16T21:40:33.525Z,42.20
2019-02-16T21:43:06.395Z,48.20
2019-02-16T21:45:36.255Z,46.30
2019-02-16T21:48:09.084Z,58.70
2019-02-16T21:50:54.096Z,61.97
2019-02-16T21:53:23.993Z,64.90
2019-02-16T21:55:53.860Z,63.83
2019-02-16T21:58:29.828Z,63.37
2019-02-16T22:01:02.615Z,59.50
2019-02-16T22:03:41.318Z,61.57
2019-02-16T22:06:23.062Z,66.00
2019-02-16T22:08:59.000Z,66.43
2019-02-16T22:11:28.882Z,68.90
2019-02-16T22:13:57.141Z,73.50
2019-02-16T22:16:25.397Z,73.00
2019-02-16T22:18:53.624Z,77.20
2019-02-16T22:21:21.858Z,78.70
2019-02-16T22:23:50.110Z,80.37
2019-02-16T22:26:18.350Z,81.57
2019-02-16T22:28:46.600Z,83.83
2019-02-16T22:31:14.827Z,82.93
2019-02-16T22:33:43.079Z,90.17
2019-02-16T22:36:11.320Z,86.13
2019-02-16T22:38:39.540Z,91.33
2019-02-16T22:41:07.755Z,93.03
2019-02-16T22:43:36.004Z,99.20
2019-02-16T22:46:04.492Z,99.17
2019-02-16T22:48:32.715Z,104.33
2019-02-16T22:51:00.964Z,93.27
2019-02-16T22:53:29.193Z,98.43
2019-02-16T22:55:57.431Z,98.33
2019-02-16T22:58:28.953Z,98.57
2019-02-16T23:00:55.652Z,102.83
2019-02-16T23:03:23.876Z,94.43
2019-02-16T23:05:52.101Z,97.97
2019-02-16T23:08:20.368Z,99.57
2019-02-16T23:10:48.573Z,99.43
2019-02-16T23:13:16.811Z,94.40
2019-02-16T23:15:45.090Z,99.07
2019-02-16T23:18:13.312Z,94.50
2019-02-16T23:20:41.534Z,98.17
2019-02-16T23:23:09.784Z,97.33
2019-02-16T23:25:38.013Z,92.70
2019-02-16T23:28:06.501Z,95.57
2019-02-16T23:30:34.739Z,97.57
2019-02-16T23:33:02.971Z,92.93
2019-02-16T23:35:31.444Z,95.77
2019-02-16T23:37:59.667Z,92.67
2019-02-16T23:40:27.908Z,99.33
2019-02-16T23:42:56.159Z,93.80
2019-02-16T23:45:24.384Z,92.43
2019-02-16T23:47:52.628Z,89.27
2019-02-16T23:50:20.860Z,95.30
2019-02-16T23:52:49.100Z,87.33
2019-02-16T23:55:17.331Z,85.43
2019-02-16T23:57:45.585Z,91.73
